Tiempo atmosférico en la estación meteorológica de Cervera De Pisuerga, Palencia (1140 m.)



Fecha
DESCASC
Temp. máxima en grados centígrados (hora)
DESCASC
Temp. mínima en grados centígrados (hora)
DESCASC
Temp. media en grados centígrados
DESCASC
Racha de viento máxima en m/sg (hora)
DESCASC
Velocidad máxima media en intervalos de 10 minutos(hora)
DESCASC
Precipitaciones diarias en mm
DESCASC
Precipitaciones de 00:00 a 06:00 en mm
DESCASC
Precipitaciones de 06:00 a 12:00 en mm
DESCASC
Precipitaciones de 12:00 a 18:00 en mm
DESCASC
Precipitaciones de 18:00 a 24:00 en mm
DESCASC
18-02-2018 9.7 (14:30) -2.1 (04:50) 3.8 12.22 (15:40) 6.39 (15:50) 0 0 0 0 0
17-02-2018 6.9 (14:50) -0.6 (23:50) 3.2 12.5 (14:00) 6.11 (14:10) 2.2 2.2 0 0 0
16-02-2018 13.4 (15:20) 5.7 (05:50) 9.5 10.83 (13:50) 5.56 (22:00) 0 0 0 0 0
15-02-2018 10.2 (13:50) 5 (00:00) 7.6 10 (13:50) 4.17 (20:00) 1.2 0 0 0 1.2
14-02-2018 8.1 (17:40) -0.1 (00:00) 4 12.5 (08:30) 6.39 (05:00) 1 0.4 0.4 0.2 0
13-02-2018 5.7 (16:50) -6.8 (-00:0) -0.6 12.5 (09:00) 5 (09:00) 1.2 0 0.6 0.2 0.4
12-02-2018 6 (12:40) -6 (-00:0) 0 12.5 (14:00) 4.44 (12:50) 0 0 0 0 0
11-02-2018 11.3 (14:50) -0.5 (-00:0) 5.4 11.39 (15:10) 5 (16:10) 0 0 0 0 0
10-02-2018 7.1 (14:30) -4.9 (-00:0) 1.1 7.5 (00:10) 3.89 (00:10) 0 0 0 0 0
09-02-2018 8.4 (14:40) -7.4 (-00:0) 0.5 10.83 (16:00) 5.28 (16:10) 3.4 0 0.2 3.2 0
08-02-2018 4 (16:40) -6.6 (-00:0) -1.3 7.5 (02:20) 3.61 (06:00) 1.4 0 0 1.2 0.2
07-02-2018 0.8 (16:10) -4.7 (-00:0) -1.9 14.17 (08:30) 6.11 (14:20) 1.4 0.6 0.6 0.2 0
06-02-2018 0.8 (15:00) -4.5 (-00:0) -1.8 14.17 (04:20) 6.67 (01:40) 0.2 0 0 0 0.2
05-02-2018 1.2 (12:20) -3.5 (-00:0) -1.1 13.89 (17:10) 6.11 (21:30) 3.6 0.2 0.8 2.4 0.2
04-02-2018 3.2 (13:10) -2.9 (-00:0) 0.1 12.5 (15:30) 5.83 (15:20) 1.6 0.4 0 1 0.2
03-02-2018 7.5 (13:20) -5.7 (-00:0) 0.9 6.67 (14:30) 3.61 (11:40) 11.2 0.6 1.2 8 1.4
02-02-2018 1.7 (14:30) -4.1 (-00:0) -1.2 10.56 (15:40) 5 (02:50) 4.8 0 0 3.6 1.2
01-02-2018 3 (10:20) -2.9 (-00:0) 0 9.44 (16:30) 4.72 (14:40) 3.4 0 0 2.8 0.6
31-01-2018 14.4 (16:00) -0.2 (00:00) 7.1 9.17 (17:30) 5 (16:00) 0 0 0 0 0
30-01-2018 14.9 (15:40) 0 (00:00) 7.4 6.39 (13:50) 3.61 (19:50) 0 0 0 0 0
29-01-2018 15.4 (14:50) 0.1 (00:00) 7.7 5.83 (15:30) 3.89 (06:40) 0 0 0 0 0
28-01-2018 11.6 (14:40) -2.4 (-00:0) 4.6 6.11 (02:50) 4.17 (02:50) 0 0 0 0 0
27-01-2018 4.3 (14:10) 0.1 (00:00) 2.2 14.44 (03:50) 6.39 (12:50) 0.2 0.2 0 0 0
26-01-2018 3.8 (13:30) -3.3 (-00:0) 0.3 13.61 (16:00) 5.83 (15:50) 4.2 0 2 1.8 0.4
25-01-2018 4.4 (05:40) -1.9 (-00:0) 1.3 10.28 (04:30) 5 (17:30) 8.6 0 4.8 3.8 0
24-01-2018 8.2 (16:10) -3.9 (-00:0) 2.1 6.39 (00:40) 2.5 (23:30) 0 0 0 0 0
23-01-2018 8.1 (14:50) -1.9 (-00:0) 3.1 5.56 (15:00) 2.78 (15:00) 0 0 0 0 0
22-01-2018 4.2 (16:10) -1.3 (-00:0) 1.4 5.56 (12:00) 3.06 (11:30) 0 0 0 0 0

Gráficas

Temp. máximas Temp. mínimas Temp. medias Precipitaciones Rachas de viento máximas Velocidades máximas media en intervalos de 10 minutos

Datos horarios

Fecha y hora oficial Temperatura (ºC) Velocidad del viento (km/h) Dirección del viento Racha (km/h) Dirección de racha Precipitación (mm) Presión (hPa) Tendencia (hPa) Humedad (%)
2018-02-20 23:00:00 3.4 19 Norte 40 Norte 0 888.3 -1.1 75
2018-02-20 22:00:00 3.5 15 Norte 40 Norte 0 888.9 -0.2 75
2018-02-20 21:00:00 3.6 16 Noroeste 40 Norte 0 889 -0.4 78
2018-02-20 20:00:00 4 17 Norte 45 Norte 0 889.4 -0.1 80
2018-02-20 19:00:00 4.1 16 Noroeste 40 Norte 0 889.1 -0.4 79
2018-02-20 18:00:00 4.6 17 Noroeste 38 Oeste 0 889.4 -0.2 74
2018-02-20 17:00:00 5.4 13 Noroeste 36 Norte 0 889.5 -0.7 73
2018-02-20 16:00:00 7.1 17 Noroeste 42 Noroeste 0 889.5 -1 67
2018-02-20 15:00:00 6.4 17 Norte 41 Norte 0 889.6 -1 69
2018-02-20 14:00:00 5.7 15 Norte 33 Norte 0 890.2 -0.3 70
2018-02-20 13:00:00 5.4 18 Norte 44 Norte 0 890.5 0.2 70
2018-02-20 12:00:00 3.9 22 Norte 39 Norte 0 890.6 0.6 81
2018-02-20 11:00:00 3.9 17 Noroeste 35 Norte 0 890.5 1.1 77
2018-02-20 10:00:00 3.4 16 Noroeste 41 Noroeste 0 890.3 0.7 80
2018-02-20 09:00:00 3.1 15 Norte 33 Norte 0 890 0.5 79
2018-02-20 08:00:00 2.6 18 Norte 36 Norte 0 889.4 0 83
2018-02-20 07:00:00 2.8 16 Norte 29 Norte 0 889.6 0.1 85
2018-02-20 06:00:00 3.2 13 Norte 31 Norte 0 889.5 -0.3 82
2018-02-20 05:00:00 3.2 16 Norte 32 Norte 0 889.4 -0.4 82
2018-02-20 04:00:00 2.9 11 Norte 22 Norte 0 889.5 -0.2 87
2018-02-20 03:00:00 3.4 10 Noroeste 26 Noroeste 0 889.8 0.1 88
2018-02-20 02:00:00 3.7 13 Norte 27 Norte 0 889.8 0 86
2018-02-20 01:00:00 3.6 9 Noroeste 30 Norte 0 889.7 -0.4 87
2018-02-20 00:00:00 3.5 13 Norte 26 Norte 0 889.7 -0.1 86
2018-02-19 23:00:00 3.4 12 Noroeste 24 Norte 0 889.8 0.1 86
2018-02-19 22:00:00 3.6 9 Noroeste 25 Noroeste 0 890.1 0.6 83
2018-02-19 21:00:00 3.6 9 Norte 19 Noroeste 0 889.8 0.4 85
2018-02-19 20:00:00 3.9 8 Noroeste 24 Norte 0 889.7 0.3 84
2018-02-19 19:00:00 4.4 11 Norte 27 Norte 0 889.5 0.5 81
2018-02-19 18:00:00 5.4 12 Norte 24 Norte 0 889.4 0.2 78
2018-02-19 17:00:00 6.5 13 Norte 33 Norte 0 889.4 -0.1 73
2018-02-19 16:00:00 7.6 15 Norte 31 Norte 0 889 -0.9 69
2018-02-19 15:00:00 9.1 17 Norte 34 Norte 0 889.2 -0.6 64
2018-02-19 14:00:00 7.6 17 Norte 31 Norte 0 889.5 -0.1 68
2018-02-19 13:00:00 8.8 8 Norte 28 Norte 0 889.9 0.2 67
2018-02-19 12:00:00 8.4 17 Norte 28 Norte 0 889.8 0.1 66
2018-02-19 11:00:00 6.1 9 Noroeste 16 Oeste 0 889.6 0 78
2018-02-19 10:00:00 3.8 0 Calma 15 Oeste 0 889.7 0.2 88
2018-02-19 09:00:00 2.4 8 Noroeste 16 Noroeste 0 889.7 0.3 91
2018-02-19 08:00:00 2.4 3 Oeste 11 Oeste 0 889.6 0.2 93
2018-02-19 07:00:00 2.3 4 Este 12 Sudoeste 0 889.5 -0.2 93
2018-02-19 06:00:00 2.1 3 Oeste 10 Oeste 0 889.4 -0.6 93
2018-02-19 05:00:00 2.1 3 Sudoeste 20 Sudoeste 0 889.4 -1.1 92
2018-02-19 04:00:00 2.2 2 Noroeste 10 Oeste 0 889.7 -1.1 90
2018-02-19 03:00:00 2.6 3 Noroeste 11 Noroeste 0 890 -1 87
2018-02-19 02:00:00 2.5 3 Oeste 14 Oeste 0 890.5 -0.9 85
2018-02-19 01:00:00 2.7 4 Noroeste 16 Norte 0 890.8 -1.1 83
2018-02-19 00:00:00 3.1 5 Noroeste 16 Oeste 0 891 -1.2 81
2018-02-18 23:00:00 2.9 4 Oeste 21 Noroeste 0 891.4 -0.8 81
2018-02-18 22:00:00 3.3 12 Noroeste 27 Noroeste 0 891.9 -0.4 82
2018-02-18 21:00:00 3.2 12 Norte 25 Norte 0 892.2 0.2 81
2018-02-18 20:00:00 3.8 7 Noroeste 19 Noroeste 0 892.2 0 76
2018-02-18 19:00:00 4.5 5 Noroeste 25 Norte 0 892.3 0 70
2018-02-18 18:00:00 5.4 12 Norte 32 Norte 0 892 -0.7 65
2018-02-18 17:00:00 6.3 16 Norte 43 Noroeste 0 892.2 -0.9 62
2018-02-18 16:00:00 7.7 19 Norte 44 Norte 0 892.3 -1.4 52
2018-02-18 15:00:00 8.6 17 Norte 42 Norte 0 892.7 -1.3 52
2018-02-18 14:00:00 8.7 18 Norte 38 Norte 0 893.1 -1 51
2018-02-18 13:00:00 8.7 12 Norte 30 Nordeste 0 893.7 -0.3 60
2018-02-18 12:00:00 8.3 11 Norte 25 Nordeste 0 894 0.3 64
2018-02-18 11:00:00 4.7 11 Norte 23 Noroeste 0 894.1 0.6 79
2018-02-18 10:00:00 3.1 6 Noroeste 17 Noroeste 0 894 0.3 65
2018-02-18 09:00:00 0.7 8 Noroeste 14 Oeste 0 893.7 -0.3 65
2018-02-18 08:00:00 -0.7 2 Norte 18 Oeste 0 893.5 -0.8 67
2018-02-18 07:00:00 -1.7 5 Oeste 18 Oeste 0 893.7 -0.8 70
2018-02-18 06:00:00 -1 5 Norte 19 Oeste 0 894 -1 69
2018-02-18 05:00:00 -1.7 6 Oeste 18 Oeste 0 894.3 -0.8 70
2018-02-18 04:00:00 -1.6 7 Norte 22 Norte 0 894.5 -0.7 71
2018-02-18 03:00:00 -1.4 9 Norte 18 Norte 0 895 -0.3 73
2018-02-18 02:00:00 -0.7 5 Norte 21 Norte 0 895.1 -0.2 71
2018-02-18 01:00:00 -0.8 6 Norte 17 Norte 0 895.2 0.3 79
2018-02-18 00:00:00 -0.6 9 Norte 20 Norte 0 895.3 0.3 78
2018-02-17 23:00:00 -0.4 10 Norte 21 Norte 0 895.3 0.4 80
2018-02-17 22:00:00 0.4 13 Norte 25 Norte 0 894.9 0.3 75
2018-02-17 21:00:00 0.8 10 Norte 26 Norte 0 895 0.6 78
2018-02-17 20:00:00 0.4 10 Norte 20 Norte 0 894.9 0.9 77
2018-02-17 19:00:00 1.9 12 Norte 27 Noroeste 0 894.6 1 74
2018-02-17 18:00:00 4 14 Noroeste 31 Norte 0 894.4 0.6 59
2018-02-17 17:00:00 4.3 18 Norte 32 Norte 0 894 0.3 59
2018-02-17 16:00:00 6.7 15 Noroeste 39 Norte 0 893.6 -0.4 54
2018-02-17 15:00:00 6.5 18 Norte 42 Norte 0 893.8 0 56
2018-02-17 14:00:00 6.4 20 Norte 45 Norte 0 893.7 0.2 58
2018-02-17 13:00:00 6.7 17 Norte 35 Norte 0 894 0.9 65
2018-02-17 12:00:00 5.9 14 Norte 35 Noroeste 0 893.8 1.1 66
2018-02-17 11:00:00 4.6 17 Norte 31 Norte 0 893.5 1.3 70
2018-02-17 10:00:00 2.4 9 Norte 28 Norte 0 893.1 1.2 81
2018-02-17 09:00:00 2.2 8 Norte 25 Norte 0 892.7 1.2 89
2018-02-17 08:00:00 1.9 11 Norte 29 Norte 0 892.2 0.9 89
2018-02-17 07:00:00 2.6 10 Norte 24 Norte 0 891.9 0.7 90
2018-02-17 06:00:00 3 8 Noroeste 20 Norte 0.4 891.5 0.4 91
2018-02-17 05:00:00 3.4 10 Norte 21 Norte 1 891.3 0.4 91
2018-02-17 04:00:00 4 11 Noroeste 27 Noroeste 0.8 891.2 0.3 89
2018-02-17 03:00:00 5.1 2 Sudoeste 16 Oeste 0 891.1 0.4 87
2018-02-17 02:00:00 5.2 6 Norte 16 Oeste 0 890.9 0.4 87
2018-02-17 01:00:00 6.2 7 Noroeste 23 Oeste 0 890.9 0.5 83
2018-02-17 00:00:00 6.1 10 Sur 18 Sudoeste 0 890.7 0.3 85
2018-02-16 23:00:00 7.3 11 Sudoeste 37 Sudoeste 0 890.5 0.2 83
2018-02-16 22:00:00 7.8 20 Sudoeste 36 Sudoeste 0 890.4 0.1 82
2018-02-16 21:00:00 8.6 12 Sudoeste 32 Sudoeste 0 890.4 0.3 82
2018-02-16 20:00:00 8.7 14 Sudoeste 32 Sudoeste 0 890.3 -0.1 81
2018-02-16 19:00:00 8.8 10 Sudoeste 26 Sudoeste 0 890.3 -0.1 83
2018-02-16 18:00:00 9.3 8 Oeste 23 Sudoeste 0 890.1 -0.7 81
2018-02-16 17:00:00 10 11 Sudoeste 36 Sudoeste 0 890.4 -1.2 77
2018-02-16 16:00:00 12.1 14 Sudoeste 32 Sudoeste 0 890.4 -1.7 66
2018-02-16 15:00:00 12.5 14 Sudoeste 24 Sur 0 890.8 -1.8 71
2018-02-16 14:00:00 11 14 Sudoeste 39 Sudoeste 0 891.6 -1 80
2018-02-16 13:00:00 11.1 13 Sudoeste 32 Sudoeste 0 892.1 -0.5 80
2018-02-16 12:00:00 8.8 6 Sur 17 Oeste 0 892.6 -0.1 95
2018-02-16 11:00:00 7.8 7 Este 13 Oeste 0 892.6 0.2 95
2018-02-16 10:00:00 6.8 6 Sudeste 12 Sudoeste 0 892.6 0.3 95
2018-02-16 09:00:00 6.1 11 Oeste 19 Oeste 0 892.7 0.3 95
2018-02-16 08:00:00 5.7 10 Oeste 17 Oeste 0 892.4 0 95
2018-02-16 07:00:00 5.8 4 Sur 13 Oeste 0 892.3 -0.4 95
2018-02-16 06:00:00 5.7 7 Noroeste 15 Sudoeste 0 892.4 -0.6 94
2018-02-16 05:00:00 6 5 Nordeste 13 Sudoeste 0 892.4 -0.5 94
2018-02-16 04:00:00 6.4 5 Norte 12 Sudoeste 0 892.7 -0.6 94
2018-02-16 03:00:00 6.4 9 Sur 14 Sudoeste 0 893 -0.2 94
2018-02-16 02:00:00 6.5 5 Nordeste 18 Oeste 0 892.9 -0.3 94
2018-02-16 01:00:00 7 7 Sudoeste 17 Oeste 0 893.3 0.2 94
2018-02-16 00:00:00 7.3 5 Noroeste 18 Oeste 0 893.2 0.1 93
2018-02-15 23:00:00 7.3 5 Norte 19 Sur 0 893.2 0.1 93
2018-02-15 22:00:00 7.9 7 Sudoeste 21 Oeste 0.2 893.1 0.6 93
2018-02-15 21:00:00 8 11 Sudoeste 23 Sur 0.2 893.1 0.9 93
2018-02-15 20:00:00 7.8 15 Sur 21 Sur 0.4 893.1 0.8 93
2018-02-15 19:00:00 8.2 13 Sudoeste 23 Sur 0.4 892.5 0.5 91
2018-02-15 18:00:00 9.1 13 Sur 23 Sur 0 892.2 0 85
2018-02-15 17:00:00 10.1 10 Sudoeste 21 Sur 0 892.3 0 82
2018-02-15 16:00:00 9.7 10 Sudoeste 21 Sur 0 892 -0.3 82
2018-02-15 15:00:00 9.2 8 Sudoeste 22 Sur 0 892.2 0.1 82
2018-02-15 14:00:00 9.8 14 Sur 36 Sudoeste 0 892.3 0.5 80
2018-02-15 13:00:00 9.6 14 Sur 30 Sur 0 892.3 0.9 78
2018-02-15 12:00:00 8.8 6 Sudoeste 25 Sudoeste 0 892.1 1.2 82
2018-02-15 11:00:00 7.6 12 Sudoeste 25 Oeste 0 891.8 1.4 90
2018-02-15 10:00:00 6.1 6 Norte 17 Oeste 0 891.4 1.1 94
2018-02-15 09:00:00 5.7 6 Nordeste 15 Oeste 0 890.9 1.3 94
2018-02-15 08:00:00 5.7 7 Norte 20 Sur 0 890.4 1.1 93
2018-02-15 07:00:00 5.5 6 Nordeste 19 Oeste 0 890.3 0.9 93
2018-02-15 06:00:00 5.2 7 Oeste 21 Sur 0 889.6 0.3 93
2018-02-15 05:00:00 5.5 7 Nordeste 12 Sudoeste 0 889.3 0.2 92
2018-02-15 04:00:00 5.6 6 Nordeste 15 Oeste 0 889.4 0.4 91
2018-02-15 03:00:00 5.5 6 Nordeste 32 Sudoeste 0 889.3 0.7 88
2018-02-15 02:00:00 6.7 10 Sudoeste 30 Oeste 0 889.1 0.7 87
2018-02-15 01:00:00 6.5 10 Sudoeste 19 Oeste 0 889 1 88
2018-02-15 00:00:00 6.4 8 Noroeste 41 Oeste 0 888.6 1 84
2018-02-14 23:00:00 7 15 Sudoeste 35 Sudoeste 0 888.4 1.1 84
2018-02-14 22:00:00 6.7 13 Sudoeste 24 Oeste 0 888 1.2 87
2018-02-14 21:00:00 6.8 12 Noroeste 21 Sur 0 887.6 1.3 84
2018-02-14 20:00:00 6.8 7 Oeste 22 Oeste 0 887.3 1.4 83
2018-02-14 19:00:00 7.3 9 Oeste 22 Oeste 0 886.8 1.3 79
2018-02-14 18:00:00 7.9 8 Sudoeste 27 Oeste 0 886.3 1.3 76
2018-02-14 17:00:00 7.6 15 Oeste 37 Oeste 0 885.9 0.9 77
2018-02-14 16:00:00 7.3 15 Oeste 37 Oeste 0 885.5 0.2 76
2018-02-14 15:00:00 7.3 14 Noroeste 33 Oeste 0.2 885 -0.2 74
2018-02-14 14:00:00 7.8 11 Sudoeste 21 Oeste 0 885 0.3 73
2018-02-14 13:00:00 7.1 9 Oeste 21 Oeste 0 885.3 1.2 74
2018-02-14 12:00:00 5.7 9 Sudoeste 37 Sudoeste 0 885.2 1.3 79
2018-02-14 11:00:00 4.5 19 Sudoeste 39 Oeste 0.4 884.7 1 82
2018-02-14 10:00:00 4.5 23 Sudoeste 45 Oeste 0 884.1 0.6 81
2018-02-14 09:00:00 4.7 18 Oeste 45 Oeste 0 883.9 0.5 79
2018-02-14 08:00:00 3.3 13 Oeste 33 Oeste 0 883.7 0.2 87
2018-02-14 07:00:00 4 16 Oeste 42 Oeste 0 883.5 -0.2 81
2018-02-14 06:00:00 3.6 18 Oeste 41 Oeste 0 883.4 -0.4 85
2018-02-14 05:00:00 3.3 23 Sudoeste 37 Sudoeste 0.2 883.5 -0.6 88
2018-02-14 04:00:00 2.7 10 Oeste 33 Oeste 0 883.7 -0.5 92
2018-02-14 03:00:00 1.8 6 Noroeste 24 Norte 0 883.8 -0.8 94
2018-02-14 02:00:00 0.3 3 Este 19 Sudoeste 0 884.1 -0.5 94
2018-02-14 01:00:00 0 3 Sudoeste 14 Sudoeste 0.2 884.2 -0.2 94
2018-02-14 00:00:00 -0.1 3 Norte 8 Oeste 0.2 884.6 0.4 93
2018-02-13 23:00:00 0 3 Nordeste 9 Noroeste 0.2 884.6 0.6 92
2018-02-13 22:00:00 0.2 4 Nordeste 12 Nordeste 0 884.4 0.8 90
2018-02-13 21:00:00 0.3 5 Nordeste 10 Sur 0 884.2 1.3 85
2018-02-13 20:00:00 0.6 6 Este 13 Este 0 884 1.3 83
2018-02-13 19:00:00 1.1 4 Nordeste 18 Oeste 0 883.6 1.1 77
2018-02-13 18:00:00 4.1 6 Oeste 34 Oeste 0 882.9 0.5 58
2018-02-13 17:00:00 5.3 13 Oeste 33 Oeste 0 882.7 0.2 57
2018-02-13 16:00:00 4.7 12 Oeste 30 Sudoeste 0 882.5 -0.5 61
2018-02-13 15:00:00 4.1 16 Sudoeste 30 Sudoeste 0 882.4 -1 63
2018-02-13 14:00:00 4 12 Sudoeste 34 Sudoeste 0 882.5 -0.6 64
2018-02-13 13:00:00 2 14 Sudoeste 23 Sur 0.2 883 0.1 68
2018-02-13 12:00:00 0.8 11 Sudoeste 31 Sudoeste 0.4 883.4 0.7 73
2018-02-13 11:00:00 -1.8 14 Sudoeste 32 Sudoeste 0.2 883.1 0.1 85
2018-02-13 10:00:00 -2.1 18 Sudoeste 33 Sudoeste 0 882.9 -0.4 80
2018-02-13 09:00:00 -2.1 18 Sudoeste 45 Sudoeste 0 882.7 -1.3 79
2018-02-13 08:00:00 -3.2 15 Oeste 41 Sudoeste 0 883 -1.5 89
2018-02-13 07:00:00 -4.4 10 Nordeste 17 Nordeste 0 883.3 -1.8 83
2018-02-13 06:00:00 -3.6 4 Norte 16 Sur 0 884 -1.9 73
2018-02-13 05:00:00 -3.4 6 Este 33 Sudoeste 0 884.5 -2 71
2018-02-13 04:00:00 -4.5 10 Oeste 24 Oeste 0 885.1 -2 75
2018-02-13 03:00:00 -5.8 8 Oeste 23 Oeste 0 885.9 -1.6 84
2018-02-13 02:00:00 -6.2 5 Sur 14 Oeste 0 886.5 -1.7 84
2018-02-13 01:00:00 -6.7 3 Sudeste 14 Oeste 0 887.1 -1.3 85
2018-02-13 00:00:00 -6 3 Oeste 16 Oeste 0 887.5 -0.7 81
2018-02-12 23:00:00 -5.3 4 Sur 15 Oeste 0 888.2 0.2 80
2018-02-12 22:00:00 -5 5 Sudoeste 15 Oeste 0 888.4 0.3 81
2018-02-12 21:00:00 -4 3 Norte 17 Oeste 0 888.2 0.1 77
2018-02-12 20:00:00 -2.9 5 Oeste 17 Sur 0 888 0 67
2018-02-12 19:00:00 -1.2 6 Sudoeste 18 Sudoeste 0 888.1 0.1 62
2018-02-12 18:00:00 1.7 4 Este 22 Noroeste 0 888.1 -0.2 59
2018-02-12 17:00:00 3.6 7 Norte 23 Nordeste 0 888 -0.6 54
2018-02-12 16:00:00 2.9 8 Nordeste 17 Nordeste 0 888 -1 54
2018-02-12 15:00:00 2 10 Este 23 Sur 0 888.3 -0.9 50
2018-02-12 14:00:00 2.6 14 Nordeste 45 Norte 0 888.6 -0.6 55
2018-02-12 13:00:00 3.4 5 Sudeste 25 Sur 0 889 0 50
2018-02-12 12:00:00 4.3 6 Sudeste 22 Sur 0 889.2 0.3 46
2018-02-12 11:00:00 1 5 Noroeste 20 Oeste 0 889.2 0.8 61
2018-02-12 10:00:00 -2.2 8 Oeste 18 Oeste 0 889 0.7 82
2018-02-12 09:00:00 -3.7 8 Noroeste 19 Noroeste 0 888.9 0.6 88
2018-02-12 08:00:00 -4.1 3 Noroeste 16 Oeste 0 888.4 0 89
2018-02-12 07:00:00 -3.6 3 Noroeste 17 Oeste 0 888.3 -0.1 86
2018-02-12 06:00:00 -2.8 8 Norte 26 Norte 0 888.3 -0.1 84
2018-02-12 05:00:00 -2.2 6 Norte 24 Norte 0 888.4 -0.1 86
2018-02-12 04:00:00 -1.6 10 Norte 23 Norte 0 888.4 -0.2 86
2018-02-12 03:00:00 -1.3 8 Norte 16 Norte 0 888.4 -0.2 89
2018-02-12 02:00:00 -0.8 4 Noroeste 19 Oeste 0 888.5 0 86
2018-02-12 01:00:00 -0.8 4 Norte 33 Norte 0 888.6 0.3 87
2018-02-12 00:00:00 0.3 14 Norte 33 Norte 0 888.6 0.6 86
2018-02-11 23:00:00 0.4 8 Norte 18 Norte 0 888.5 0.7 87
2018-02-11 22:00:00 0.9 5 Sudeste 30 Norte 0 888.3 0.9 85
2018-02-11 21:00:00 1.7 15 Norte 29 Norte 0 888 1 83
2018-02-11 20:00:00 2.4 18 Norte 30 Norte 0 887.8 1.4 81
2018-02-11 19:00:00 3.4 16 Norte 30 Norte 0 887.4 0.5 80
2018-02-11 18:00:00 5.3 12 Norte 21 Norte 0 887 0.2 77
2018-02-11 17:00:00 7.4 10 Noroeste 41 Oeste 0 886.4 -1.2 66
2018-02-11 16:00:00 10.8 14 Oeste 41 Oeste 0 886.9 -1.5 52
2018-02-11 15:00:00 11.1 16 Oeste 36 Oeste 0 886.8 -1.7 51
2018-02-11 14:00:00 9.3 3 Sudeste 11 Noroeste 0 887.6 -1.3 62
2018-02-11 13:00:00 7.4 5 Nordeste 12 Noroeste 0 888.4 -0.3 64
2018-02-11 12:00:00 5.6 2 Noroeste 16 Sudoeste 0 888.5 -0.2 74
2018-02-11 11:00:00 2 4 Este 13 Sur 0 888.9 0.4 87
2018-02-11 10:00:00 0.9 6 Nordeste 17 Oeste 0 888.7 0.1 93
2018-02-11 09:00:00 0.1 4 Este 19 Oeste 0 888.7 0.3 94
2018-02-11 08:00:00 -0.2 4 Oeste 16 Oeste 0 888.5 0.2 94
2018-02-11 07:00:00 -0.2 3 Sudeste 11 Oeste 0 888.6 0.2 93
2018-02-11 06:00:00 0.4 6 Noroeste 22 Oeste 0 888.4 -0.4 93
2018-02-11 05:00:00 -0.1 4 Oeste 13 Nordeste 0 888.3 -1 91
2018-02-11 04:00:00 0.5 6 Sudoeste 19 Sudoeste 0 888.4 -0.9 88
2018-02-11 03:00:00 0.4 6 Noroeste 13 Oeste 0 888.8 -0.7 88
2018-02-11 02:00:00 0.2 5 Noroeste 9 Noroeste 0 889.3 -0.5 87
2018-02-11 01:00:00 1 4 Noroeste 14 Oeste 0 889.3 -0.7 85
2018-02-11 00:00:00 1.4 2 Noroeste 8 Sudoeste 0 889.5 -0.6 77
2018-02-10 23:00:00 1.5 2 Oeste 10 Sudoeste 0 889.8 -0.3 74
2018-02-10 22:00:00 1.7 4 Norte 10 Noroeste 0 890 -0.1 73
2018-02-10 21:00:00 2 2 Oeste 4 Noroeste 0 890.1 -0.2 70
2018-02-10 20:00:00 2.2 0 Calma 11 Oeste 0 890.1 0.1 68
2018-02-10 19:00:00 2.7 4 Norte 13 Oeste 0 890.1 0.3 66
2018-02-10 18:00:00 4.4 8 Noroeste 23 Norte 0 890.3 0.3 56
2018-02-10 17:00:00 5.3 13 Norte 24 Norte 0 890 -0.7 52
2018-02-10 16:00:00 5.5 10 Norte 25 Norte 0 889.8 -1.4 53
2018-02-10 15:00:00 5.7 12 Norte 25 Nordeste 0 890 -1.6 52
2018-02-10 14:00:00 6.4 8 Norte 25 Nordeste 0 890.7 -1 51
2018-02-10 13:00:00 6.1 7 Sudeste 24 Sur 0 891.2 -0.3 47
2018-02-10 12:00:00 5.8 12 Sudoeste 22 Sur 0 891.6 0.5 50
2018-02-10 11:00:00 2.2 6 Sudoeste 19 Oeste 0 891.7 1.1 61
2018-02-10 10:00:00 -2.3 5 Oeste 18 Oeste 0 891.5 0.8 77
2018-02-10 09:00:00 -4.2 6 Noroeste 18 Sudoeste 0 891.1 0.4 84
2018-02-10 08:00:00 -4.5 6 Sudoeste 17 Oeste 0 890.6 -0.3 87
2018-02-10 07:00:00 -3.8 4 Oeste 16 Oeste 0 890.7 -0.6 84
2018-02-10 06:00:00 -3.9 5 Noroeste 17 Oeste 0 890.7 -0.7 86
2018-02-10 05:00:00 -3.5 5 Noroeste 16 Oeste 0 890.9 -0.2 87
2018-02-10 04:00:00 -2.9 5 Norte 14 Norte 0 891.3 -0.3 84
2018-02-10 03:00:00 -2.4 6 Noroeste 20 Noroeste 0 891.4 -0.2 84
2018-02-10 02:00:00 -2 4 Norte 26 Norte 0 891.1 -0.3 87
2018-02-10 01:00:00 -1.2 9 Norte 27 Norte 0 891.6 0.4 85
2018-02-10 00:00:00 -1 11 Norte 23 Norte 0 891.6 0.5 76
2018-02-09 23:00:00 -1.1 13 Norte 23 Norte 0 891.4 0.6 76
2018-02-09 22:00:00 -1.2 6 Norte 35 Norte 0 891.2 1.1 82
2018-02-09 21:00:00 -1 5 Norte 27 Norte 0 891.1 1.8 83
2018-02-09 20:00:00 -0.5 8 Norte 28 Norte 0 890.8 2.3 87
2018-02-09 19:00:00 -0.1 5 Norte 23 Norte 0 890.1 2.3 87
2018-02-09 18:00:00 0.9 9 Norte 30 Norte 0 889.3 2.1 83
2018-02-09 17:00:00 1.7 17 Norte 39 Norte 0.2 888.5 1.4 81
2018-02-09 16:00:00 3.7 15 Norte 39 Norte 0 887.8 0.7 73
2018-02-09 15:00:00 5.7 12 Norte 23 Nordeste 0.6 887.2 0.2 66
2018-02-09 14:00:00 5.9 5 Sudeste 17 Sur 1.6 887.1 0.3 63
2018-02-09 13:00:00 4.3 5 Sudeste 19 Sur 0.8 887.1 0.8 63
2018-02-09 12:00:00 2.5 5 Este 16 Sur 0.2 887 1 63
2018-02-09 11:00:00 0.5 5 Oeste 17 Oeste 0 886.8 1.3 76
2018-02-09 10:00:00 -1.9 6 Norte 18 Oeste 0 886.3 1.1 82
2018-02-09 09:00:00 -3.7 9 Oeste 18 Oeste 0 886 0.5 84
2018-02-09 08:00:00 -3.6 6 Noroeste 16 Oeste 0 885.5 -0.1 82
2018-02-09 07:00:00 -4.6 3 Sudoeste 18 Oeste 0 885.2 -0.7 77
2018-02-09 06:00:00 -5.3 6 Noroeste 15 Oeste 0 885.5 -0.9 79
2018-02-09 05:00:00 -5.4 5 Norte 14 Noroeste 0 885.6 -1.1 78
2018-02-09 04:00:00 -6.4 5 Noroeste 16 Oeste 0 885.9 -1 82
2018-02-09 03:00:00 -7.3 5 Oeste 17 Oeste 0 886.4 -0.6 83
2018-02-09 02:00:00 -7.1 6 Oeste 16 Nordeste 0 886.7 -0.7 85
2018-02-09 01:00:00 -6.8 5 Oeste 16 Oeste 0 886.9 -0.7 84
2018-02-09 00:00:00 -6.6 4 Norte 17 Oeste 0 887 -0.9 84
2018-02-08 23:00:00 -6.1 4 Oeste 17 Oeste 0 887.4 -0.6 80
2018-02-08 22:00:00 -5 5 Noroeste 17 Oeste 0 887.6 -0.2 72
2018-02-08 21:00:00 -3.9 5 Noroeste 15 Oeste 0 887.9 0.3 70
2018-02-08 20:00:00 -3.6 5 Oeste 14 Oeste 0.2 888 0.5 74
2018-02-08 19:00:00 -2.6 3 Norte 16 Nordeste 0 887.8 0.3 70
2018-02-08 18:00:00 0.5 8 Norte 25 Norte 0.4 887.6 -0.4 57
2018-02-08 17:00:00 3.3 8 Nordeste 19 Norte 0.8 887.5 -0.9 45
2018-02-08 16:00:00 2.9 6 Nordeste 18 Norte 0 887.5 -1.2 52
2018-02-08 15:00:00 3 8 Norte 21 Noroeste 0 888 -1.2 50
2018-02-08 14:00:00 2.9 6 Norte 21 Oeste 0 888.4 -0.7 51
2018-02-08 13:00:00 1.7 8 Norte 20 Nordeste 0 888.7 -0.3 50
2018-02-08 12:00:00 0.6 5 Norte 19 Oeste 0 889.2 0.4 58
2018-02-08 11:00:00 -1 8 Norte 17 Norte 0 889.1 0.8 64
2018-02-08 10:00:00 -1.7 5 Noroeste 16 Oeste 0 889 0.9 64
2018-02-08 09:00:00 -3.8 4 Oeste 17 Oeste 0 888.8 0.7 70
2018-02-08 08:00:00 -3.9 6 Noroeste 17 Noroeste 0 888.3 0.1 71
2018-02-08 07:00:00 -4.4 8 Noroeste 24 Noroeste 0 888.1 0 77
2018-02-08 06:00:00 -4.6 13 Noroeste 25 Noroeste 0 888.1 -0.2 73
2018-02-08 05:00:00 -6.3 8 Noroeste 18 Norte 0 888.2 -0.2 74
2018-02-08 04:00:00 -5.4 6 Oeste 16 Noroeste 0 888.1 -0.2 73
2018-02-08 03:00:00 -4.4 9 Noroeste 27 Noroeste 0 888.3 0.1 68
2018-02-08 02:00:00 -3.6 6 Norte 23 Norte 0 888.4 0.4 79
2018-02-08 01:00:00 -3.5 10 Norte 23 Norte 0 888.3 0.6 79
2018-02-08 00:00:00 -4.1 7 Norte 27 Norte 0 888.2 0.8 79
2018-02-07 23:00:00 -4.7 6 Noroeste 11 Noroeste 0 888 1 88
2018-02-07 22:00:00 -3.8 8 Norte 21 Norte 0 887.7 0.9 85
2018-02-07 21:00:00 -3.8 6 Norte 28 Norte 0 887.4 1 79
2018-02-07 20:00:00 -3.8 11 Norte 24 Norte 0 887 0.8 76
2018-02-07 19:00:00 -3.3 9 Noroeste 24 Nordeste 0 886.8 0.9 83
2018-02-07 18:00:00 -2.7 11 Norte 30 Norte 0 886.4 0.5 74
2018-02-07 17:00:00 -1.1 12 Norte 25 Noroeste 0 886.2 0.3 68
2018-02-07 16:00:00 0.4 10 Norte 37 Norte 0 885.9 0.2 53
2018-02-07 15:00:00 -0.4 15 Norte 39 Norte 0.2 885.9 0.4 63
2018-02-07 14:00:00 -1.1 10 Norte 37 Norte 0 885.9 0.8 79
2018-02-07 13:00:00 -0.6 14 Norte 37 Norte 0 885.7 1.1 75
2018-02-07 12:00:00 -0.8 11 Norte 31 Norte 0 885.5 1.5 72
2018-02-07 11:00:00 -2.4 13 Norte 33 Norte 0 885.1 1.6 76
2018-02-07 10:00:00 -2.8 13 Norte 39 Norte 0 884.6 1.5 79
2018-02-07 09:00:00 -3.4 14 Norte 51 Norte 0.2 884 1.1 86
2018-02-07 08:00:00 -3.6 13 Norte 40 Noroeste 0.2 883.5 1 90
2018-02-07 07:00:00 -3.5 17 Noroeste 35 Norte 0.2 883.1 0.5 90
2018-02-07 06:00:00 -3.3 12 Noroeste 32 Noroeste 0.2 882.9 0.3 93
2018-02-07 05:00:00 -3.3 10 Norte 35 Norte 0.2 882.5 -0.1 91
2018-02-07 04:00:00 -3.2 13 Norte 35 Norte 0 882.6 0.1 90
2018-02-07 03:00:00 -3.1 15 Norte 31 Norte 0.2 882.6 0.1 91
2018-02-07 02:00:00 -2.9 9 Noroeste 27 Noroeste 0 882.6 0.2 92
2018-02-07 01:00:00 -2.8 6 Noroeste 24 Norte 0 882.5 0.2 91
2018-02-07 00:00:00 -2.7 7 Noroeste 19 Noroeste 0.2 882.5 0.5 89
2018-02-06 23:00:00 -2.7 5 Oeste 22 Norte 0 882.4 0.4 89
2018-02-06 22:00:00 -2.3 14 Norte 29 Noroeste 0 882.3 0.8 79
2018-02-06 21:00:00 -2.9 7 Oeste 26 Norte 0 882 0.8 83
2018-02-06 20:00:00 -2.6 12 Norte 30 Norte 0 882 0.7 79
2018-02-06 19:00:00 -2.5 13 Noroeste 30 Norte 0 881.5 0.2 78
2018-02-06 18:00:00 -1.9 6 Norte 21 Norte 0 881.2 -0.1 67
2018-02-06 17:00:00 -1.3 11 Norte 27 Nordeste 0 881.3 -0.7 67
2018-02-06 16:00:00 -0.3 10 Norte 24 Norte 0 881.3 -1 65
2018-02-06 15:00:00 0.5 14 Noroeste 35 Norte 0 881.3 -1.2 57
2018-02-06 14:00:00 -0.5 18 Norte 39 Norte 0 882 -0.2 65
2018-02-06 13:00:00 -1.6 8 Norte 23 Norte 0 882.3 0.4 76
2018-02-06 12:00:00 -0.8 7 Norte 31 Norte 0 882.5 1 67
2018-02-06 11:00:00 -1.1 14 Norte 40 Norte 0 882.2 1.1 65
2018-02-06 10:00:00 -3 19 Norte 46 Norte 0 881.9 1 76
2018-02-06 09:00:00 -3.4 17 Norte 44 Norte 0 881.5 0.5 77
2018-02-06 08:00:00 -3.5 15 Noroeste 46 Norte 0 881.1 -0.2 78
2018-02-06 07:00:00 -4 19 Norte 43 Norte 0 880.9 -0.7 79
2018-02-06 06:00:00 -3.9 17 Norte 48 Noroeste 0 881 -0.6 68
2018-02-06 05:00:00 -4.2 19 Noroeste 51 Norte 0 881.3 -0.3 59
2018-02-06 04:00:00 -4.1 19 Noroeste 50 Norte 0 881.6 -0.2 74
2018-02-06 03:00:00 -4.1 20 Noroeste 47 Norte 0 881.6 0.2 77
2018-02-06 02:00:00 -3.9 18 Noroeste 45 Norte 0 881.6 0.6 80
2018-02-06 01:00:00 -3.4 22 Noroeste 49 Norte 0 881.8 1.2 81
2018-02-06 00:00:00 -3.3 18 Noroeste 42 Norte 0 881.4 0.9 83
2018-02-05 23:00:00 -3 18 Noroeste 40 Norte 0 881 0.8 84
2018-02-05 22:00:00 -3.5 17 Noroeste 45 Noroeste 0 880.6 1.1 85
2018-02-05 21:00:00 -3.2 21 Norte 44 Norte 0 880.5 1.8 83
2018-02-05 20:00:00 -2.8 12 Norte 39 Norte 0 880.2 2.1 84
2018-02-05 19:00:00 -2.5 12 Norte 31 Norte 0.2 879.5 1.5 89
2018-02-05 18:00:00 -2.2 14 Norte 50 Norte 0 878.7 0.9 88
2018-02-05 17:00:00 -1.7 15 Norte 40 Noroeste 0 878.1 -0.3 84
2018-02-05 16:00:00 -0.9 11 Norte 39 Nordeste 0.4 878 -1.1 82
2018-02-05 15:00:00 -0.7 17 Norte 39 Norte 0.6 877.8 -1.4 86
2018-02-05 14:00:00 0.6 12 Norte 37 Norte 0.6 878.4 -0.9 78
2018-02-05 13:00:00 0.5 11 Norte 43 Nordeste 0.8 879.1 0.2 82
2018-02-05 12:00:00 0.4 15 Norte 35 Norte 0.6 879.2 0.4 84
2018-02-05 11:00:00 -0.9 18 Norte 43 Norte 0 879.3 1 90
2018-02-05 10:00:00 -1.9 14 Norte 31 Norte 0.2 878.9 1 92
2018-02-05 09:00:00 -1.8 15 Norte 32 Norte 0 878.8 0.9 90
2018-02-05 08:00:00 -1.7 11 Norte 32 Norte 0 878.3 0.5 89
2018-02-05 07:00:00 -1.7 14 Norte 32 Nordeste 0 877.9 -0.4 88
2018-02-05 06:00:00 -1.6 14 Norte 31 Norte 0 877.9 -0.7 88
2018-02-05 05:00:00 -1.9 9 Norte 19 Norte 0 877.8 -1 91
2018-02-05 04:00:00 -2 4 Norte 18 Oeste 0 878.3 -0.8 93
2018-02-05 03:00:00 -1.9 4 Noroeste 15 Oeste 0.2 878.6 -0.5 93
2018-02-05 02:00:00 -2.1 6 Sudoeste 19 Noroeste 0 878.8 -0.3 93
2018-02-05 01:00:00 -1.3 8 Norte 27 Norte 0 879.1 -0.2 92
2018-02-05 00:00:00 -1.5 8 Norte 27 Norte 0 879.1 -0.4 90
2018-02-04 23:00:00 -1.6 10 Norte 20 Norte 0 879.1 -0.2 92
2018-02-04 22:00:00 -1.5 10 Norte 25 Noroeste 0.2 879.3 0 92
2018-02-04 21:00:00 -0.7 13 Norte 32 Norte 0 879.5 0.3 87
2018-02-04 20:00:00 -0.7 10 Norte 22 Noroeste 0 879.3 -0.1 79
2018-02-04 19:00:00 -0.5 5 Norte 26 Norte 0 879.3 -0.3 75
2018-02-04 18:00:00 1.1 8 Norte 38 Noroeste 0 879.2 -0.7 67
2018-02-04 17:00:00 2 14 Noroeste 40 Norte 0 879.4 -1.1 61
2018-02-04 16:00:00 2.3 17 Norte 45 Norte 0.2 879.6 -1.1 59
2018-02-04 15:00:00 2.8 16 Norte 40 Norte 0.4 879.9 -1.4 60
2018-02-04 14:00:00 2.5 18 Norte 32 Norte 0.4 880.5 -0.8 62
2018-02-04 13:00:00 2.8 12 Norte 32 Noroeste 0 880.7 -0.1 59
2018-02-04 12:00:00 1.1 16 Norte 36 Norte 0 881.3 0.6 68
2018-02-04 11:00:00 -0.7 7 Norte 29 Norte 0 881.3 0.9 74
2018-02-04 10:00:00 -1.6 10 Norte 30 Norte 0 880.8 0.8 78
2018-02-04 09:00:00 -2.7 10 Norte 23 Norte 0 880.7 0.7 85
2018-02-04 08:00:00 -2.3 12 Norte 28 Norte 0 880.4 0.6 84
2018-02-04 07:00:00 -2.4 12 Norte 28 Noroeste 0 880 0.1 87
2018-02-04 06:00:00 -2.5 6 Norte 17 Norte 0 880 0 90
2018-02-04 05:00:00 -2.8 6 Nordeste 13 Nordeste 0 879.8 -0.7 92
2018-02-04 04:00:00 -1.8 9 Norte 19 Norte 0.2 879.9 -1.1 92
2018-02-04 03:00:00 -1.5 4 Norte 13 Oeste 0 880 -1.4 93
2018-02-04 02:00:00 -1.1 6 Sudoeste 15 Sudoeste 0.2 880.5 -1.2 93
2018-02-04 01:00:00 -0.7 6 Norte 14 Oeste 0 881 -0.7 93
2018-02-04 00:00:00 -0.4 3 Oeste 15 Sudoeste 0 881.4 -0.9 92
2018-02-03 23:00:00 -0.2 2 Noroeste 14 Oeste 0.2 881.7 -0.9 92
2018-02-03 22:00:00 0.1 2 Sudeste 15 Sur 0.2 881.7 -0.8 93
2018-02-03 21:00:00 0.3 8 Sur 18 Sudoeste 0.2 882.3 0.1 92
2018-02-03 20:00:00 0.7 7 Sudoeste 18 Sur 0.4 882.6 0.1 90
2018-02-03 19:00:00 1.3 4 Sur 19 Sudoeste 0.4 882.5 -0.1 88
2018-02-03 18:00:00 2.1 2 Sudeste 13 Sudeste 0.4 882.2 -0.8 85
2018-02-03 17:00:00 2.5 7 Nordeste 13 Sudeste 0.8 882.5 -1.3 82
2018-02-03 16:00:00 3.8 5 Este 20 Este 1.4 882.6 -1.8 74
2018-02-03 15:00:00 5.8 8 Nordeste 24 Sudoeste 1.8 883 -2.1 63
2018-02-03 14:00:00 6.6 5 Este 21 Sur 2 883.8 -1.6 56
2018-02-03 13:00:00 6.5 6 Sur 16 Sudoeste 1.6 884.4 -1 57
2018-02-03 12:00:00 3.2 10 Sudeste 18 Sur 0.6 885.1 -0.3 65
2018-02-03 11:00:00 1.1 8 Sur 17 Sur 0.4 885.4 -0.1 71
2018-02-03 10:00:00 -1.7 3 Norte 17 Oeste 0.2 885.4 0 85
2018-02-03 09:00:00 -3.4 4 Noroeste 17 Oeste 0 885.4 -0.1 86
2018-02-03 08:00:00 -4.4 8 Oeste 18 Oeste 0 885.5 0 88
2018-02-03 07:00:00 -4.4 7 Oeste 19 Oeste 0 885.4 -0.6 88
2018-02-03 06:00:00 -4.7 8 Oeste 18 Oeste 0.2 885.5 -0.9 86
2018-02-03 05:00:00 -4.5 8 Noroeste 17 Oeste 0 885.5 -1 87
2018-02-03 04:00:00 -5.3 9 Oeste 17 Oeste 0.2 886 -0.4 87
2018-02-03 03:00:00 -5.7 8 Oeste 15 Oeste 0 886.4 0.2 87
2018-02-03 02:00:00 -4.7 4 Sudeste 17 Oeste 0.2 886.5 0.4 87
2018-02-03 01:00:00 -4.2 5 Noroeste 15 Oeste 0 886.4 0.4 86
2018-02-03 00:00:00 -3.8 8 Norte 18 Norte 0.2 886.2 0.6 86
2018-02-02 23:00:00 -3.8 5 Noroeste 17 Oeste 0 886.1 0.6 85
2018-02-02 22:00:00 -3.7 8 Noroeste 25 Norte 0.2 886 0.8 87
2018-02-02 21:00:00 -3.6 15 Norte 25 Norte 0.2 885.6 0.9 89
2018-02-02 20:00:00 -3.3 14 Norte 27 Norte 0.2 885.5 1.2 88
2018-02-02 19:00:00 -2.8 9 Noroeste 21 Norte 0.4 885.2 1.3 86
2018-02-02 18:00:00 -1.1 13 Norte 26 Norte 0.8 884.7 0.8 83
2018-02-02 17:00:00 0.3 12 Norte 32 Norte 1 884.3 0.1 77
2018-02-02 16:00:00 0.4 13 Noroeste 38 Noroeste 1.4 883.9 -0.1 75
2018-02-02 15:00:00 0.9 15 Noroeste 34 Norte 0.4 883.9 0.3 75
2018-02-02 14:00:00 0.1 14 Noroeste 31 Norte 0 884.2 0.7 81
2018-02-02 13:00:00 0.4 9 Norte 18 Noroeste 0 884 1.3 82
2018-02-02 12:00:00 -2.2 8 Norte 35 Norte 0 883.6 1.4 93
2018-02-02 11:00:00 -2.4 6 Oeste 17 Oeste 0 883.5 1.7 92
2018-02-02 10:00:00 -2.9 5 Oeste 18 Oeste 0 882.7 1.3 93
2018-02-02 09:00:00 -2.9 6 Norte 15 Norte 0 882.2 1.4 92
2018-02-02 08:00:00 -3 5 Norte 25 Nordeste 0 881.8 0.8 93
2018-02-02 07:00:00 -3 7 Norte 24 Norte 0 881.4 0.3 92
2018-02-02 06:00:00 -2.7 5 Noroeste 25 Nordeste 0 880.8 -0.2 92
2018-02-02 05:00:00 -2.7 12 Norte 31 Noroeste 0 881 0.3 90
2018-02-02 04:00:00 -2.7 8 Norte 29 Norte 0 881.1 0.4 93
2018-02-02 03:00:00 -2.4 15 Norte 37 Norte 0 881 0.5 93
2018-02-02 02:00:00 -2.4 12 Noroeste 22 Noroeste 0 880.7 0.4 94
2018-02-02 01:00:00 -2.5 8 Norte 21 Noroeste 0 880.7 0.5 94
2018-02-02 00:00:00 -2.7 7 Noroeste 25 Noroeste 0 880.5 0.9 94
2018-02-01 23:00:00 -2.6 9 Noroeste 20 Noroeste 0.2 880.3 0.7 94
2018-02-01 22:00:00 -2.5 15 Noroeste 33 Norte 0 880.2 0.5 93
2018-02-01 21:00:00 -2.6 14 Norte 31 Norte 0.2 879.6 -0.2 91
2018-02-01 20:00:00 -2.2 10 Noroeste 27 Noroeste 0 879.6 -0.3 93
2018-02-01 19:00:00 -2.1 16 Noroeste 33 Noroeste 0.2 879.7 -0.3 91
2018-02-01 18:00:00 -1.7 10 Noroeste 24 Norte 0 879.8 -0.8 90
2018-02-01 17:00:00 -0.7 12 Norte 34 Norte 0.6 879.9 -1.1 88
2018-02-01 16:00:00 2.7 5 Noroeste 21 Noroeste 0.8 880 -1.8 80
2018-02-01 15:00:00 -0.7 12 Norte 32 Norte 0.2 880.6 -1.8 92
2018-02-01 14:00:00 2.4 8 Norte 16 Nordeste 0.8 881 -1.6 83
2018-02-01 13:00:00 1.1 3 Norte 18 Norte 0.4 881.8 -0.9 88
2018-02-01 12:00:00 0.5 10 Norte 28 Norte 0 882.4 -0.5 88
2018-02-01 11:00:00 2 6 Norte 12 Norte 0 882.6 -0.5 81
2018-02-01 10:00:00 1.9 7 Noroeste 19 Noroeste 0 882.7 -1 76
2018-02-01 09:00:00 1.7 8 Noroeste 29 Oeste 0 882.9 -1.3 73
2018-02-01 08:00:00 1.2 10 Noroeste 27 Oeste 0 883.1 -1.4 76
2018-02-01 07:00:00 1.1 10 Noroeste 18 Noroeste 0 883.7 -1.2 85
2018-02-01 06:00:00 1.7 6 Noroeste 12 Norte 0 884.2 -1.2 80
2018-02-01 05:00:00 2.1 7 Noroeste 15 Noroeste 0 884.5 -1.6 81
2018-02-01 04:00:00 1.5 5 Oeste 14 Oeste 0 884.9 -1.5 75
2018-02-01 03:00:00 1.6 2 Sur 13 Oeste 0 885.4 -1.4 70
2018-02-01 02:00:00 1.1 5 Noroeste 15 Oeste 0 886.1 -0.8 71
2018-02-01 01:00:00 1.8 4 Noroeste 15 Oeste 0 886.4 -1.7 70
2018-02-01 00:00:00 1.9 4 Noroeste 15 Oeste 0 886.8 -1.8 71
2018-01-31 23:00:00 3.1 5 Norte 17 Oeste 0 886.9 -1.7 67
2018-01-31 22:00:00 3.5 7 Noroeste 15 Oeste 0 888.1 -0.4 65
2018-01-31 21:00:00 4.1 6 Noroeste 17 Oeste 0 888.6 0.1 64
2018-01-31 20:00:00 4.8 8 Noroeste 18 Oeste 0 888.6 -0.2 61
2018-01-31 19:00:00 5.9 7 Norte 16 Sudoeste 0 888.5 -0.5 57
2018-01-31 18:00:00 9.8 7 Norte 33 Sur 0 888.5 -1.2 43
2018-01-31 17:00:00 13 17 Sur 28 Sur 0 888.8 -2.1 35
2018-01-31 16:00:00 14.4 18 Sur 29 Sur 0 889 -2.8 31
2018-01-31 15:00:00 12.9 17 Sudeste 29 Sur 0 889.7 -2.7 34
2018-01-31 14:00:00 12.8 11 Sudeste 23 Sur 0 890.9 -1.7 40
2018-01-31 13:00:00 11 9 Este 16 Sur 0 891.8 -0.8 44
2018-01-31 12:00:00 9.3 10 Sur 15 Sur 0 892.4 -0.2 46
2018-01-31 11:00:00 5.7 3 Noroeste 17 Sur 0 892.6 0 56
2018-01-31 10:00:00 2.1 6 Noroeste 10 Noroeste 0 892.6 0 63
2018-01-31 09:00:00 -0.1 5 Oeste 11 Oeste 0 892.6 -0.1 73
2018-01-31 08:00:00 0.5 5 Noroeste 16 Noroeste 0 892.6 -0.2 68
2018-01-31 07:00:00 1.6 7 Noroeste 15 Sudoeste 0 892.6 -0.7 66
2018-01-31 06:00:00 1.7 7 Noroeste 15 Noroeste 0 892.7 -1 64
2018-01-31 05:00:00 1.5 10 Noroeste 16 Oeste 0 892.8 -1.4 66
2018-01-31 04:00:00 1.3 10 Noroeste 17 Noroeste 0 893.3 -1.5 67
2018-01-31 03:00:00 1.5 10 Noroeste 15 Noroeste 0 893.7 -1.5 67
2018-01-31 02:00:00 1.9 10 Noroeste 16 Noroeste 0 894.2 -1.2 66
2018-01-31 01:00:00 1.8 8 Noroeste 15 Oeste 0 894.8 -0.7 67
2018-01-31 00:00:00 1.9 8 Noroeste 17 Oeste 0 895.2 -0.2 66
2018-01-30 23:00:00 2.6 8 Noroeste 17 Oeste 0 895.4 0.2 64
2018-01-30 22:00:00 3.3 8 Noroeste 17 Oeste 0 895.5 0.5 57
2018-01-30 21:00:00 4.2 7 Noroeste 19 Oeste 0 895.4 0.6 53
2018-01-30 20:00:00 5.1 11 Oeste 18 Oeste 0 895.2 0.3 53
2018-01-30 19:00:00 7.6 4 Nordeste 12 Este 0 895 -0.2 45
2018-01-30 18:00:00 11.3 8 Este 12 Este 0 894.8 -0.8 34
2018-01-30 17:00:00 13.6 8 Sudeste 16 Sur 0 894.9 -1.4 29
2018-01-30 16:00:00 14.5 7 Este 22 Sur 0 895.2 -1.9 28
2018-01-30 15:00:00 14.4 10 Sudeste 23 Sur 0 895.6 -2.1 27
2018-01-30 14:00:00 14 11 Sudeste 23 Sur 0 896.3 -1.5 24
2018-01-30 13:00:00 13.4 8 Sudeste 16 Sur 0 897.1 -0.9 24
2018-01-30 12:00:00 10.5 7 Sudoeste 14 Oeste 0 897.7 -0.2 30
2018-01-30 11:00:00 7.1 3 Oeste 13 Noroeste 0 897.8 -0.2 35
2018-01-30 10:00:00 4 6 Noroeste 15 Noroeste 0 898 0 39
2018-01-30 09:00:00 0.6 9 Noroeste 16 Noroeste 0 897.9 -0.4 51
2018-01-30 08:00:00 1.2 10 Noroeste 16 Noroeste 0 898 -0.6 49
2018-01-30 07:00:00 0.5 8 Noroeste 12 Oeste 0 898 -1 53
2018-01-30 06:00:00 0 8 Noroeste 14 Noroeste 0 898.3 -1 60
2018-01-30 05:00:00 1.9 8 Noroeste 16 Noroeste 0 898.6 -1.3 46
2018-01-30 04:00:00 1.5 7 Noroeste 15 Noroeste 0 899 -1.2 50
2018-01-30 03:00:00 1.9 11 Noroeste 15 Oeste 0 899.3 -1 48
2018-01-30 02:00:00 2.6 6 Noroeste 16 Oeste 0 899.9 -0.5 45
2018-01-30 01:00:00 1.8 5 Noroeste 15 Oeste 0 900.2 -0.2 52
2018-01-30 00:00:00 2.6 4 Noroeste 14 Oeste 0 900.3 -0.2 55
2018-01-29 23:00:00 2.9 5 Norte 17 Oeste 0 900.4 -0.1 49
2018-01-29 22:00:00 3.7 6 Noroeste 17 Oeste 0 900.4 0.2 42
2018-01-29 21:00:00 3.5 9 Noroeste 18 Oeste 0 900.5 0.3 49
2018-01-29 20:00:00 5 6 Norte 14 Oeste 0 900.5 0 48
2018-01-29 19:00:00 5.8 5 Norte 21 Norte 0 900.2 -0.4 46
2018-01-29 18:00:00 9.2 8 Norte 19 Oeste 0 900.2 -0.8 35
2018-01-29 17:00:00 12.6 6 Norte 21 Norte 0 900.5 -1.3 27
2018-01-29 16:00:00 14.1 7 Norte 21 Norte 0 900.6 -2 24
2018-01-29 15:00:00 14.8 7 Norte 19 Nordeste 0 901 -2.1 21
2018-01-29 14:00:00 14.4 4 Este 13 Sur 0 901.8 -1.3 22
2018-01-29 13:00:00 13.8 6 Sur 17 Sur 0 902.6 -0.3 32
2018-01-29 12:00:00 10.8 5 Sudoeste 17 Oeste 0 903.1 0.1 39
2018-01-29 11:00:00 7.8 7 Sudoeste 18 Oeste 0 903.1 0.2 53
2018-01-29 10:00:00 3.5 9 Noroeste 17 Noroeste 0 902.9 -0.1 55
2018-01-29 09:00:00 1.2 8 Noroeste 14 Noroeste 0 903 -0.3 64
2018-01-29 08:00:00 0.6 9 Noroeste 19 Noroeste 0 902.9 -0.7 73
2018-01-29 07:00:00 0.7 10 Noroeste 18 Noroeste 0 903 -1.2 70
2018-01-29 06:00:00 0.6 10 Oeste 16 Noroeste 0 903.3 -1.1 76
2018-01-29 05:00:00 0.8 11 Noroeste 16 Noroeste 0 903.6 -1 76
2018-01-29 04:00:00 0.9 10 Noroeste 16 Noroeste 0 904.2 -0.6 76
2018-01-29 03:00:00 0.6 9 Noroeste 15 Noroeste 0 904.4 -0.6 77
2018-01-29 02:00:00 0.7 9 Oeste 15 Oeste 0 904.6 -0.5 78
2018-01-29 01:00:00 1.5 10 Noroeste 17 Noroeste 0 904.8 -0.4 75
2018-01-29 00:00:00 1.6 8 Noroeste 21 Oeste 0 905 0 76
2018-01-28 23:00:00 2.4 10 Noroeste 16 Oeste 0 905.1 0.4 72
2018-01-28 22:00:00 2.5 8 Oeste 17 Oeste 0 905.2 1.1 71
2018-01-28 21:00:00 2.6 9 Oeste 16 Oeste 0 905 1.2 71
2018-01-28 20:00:00 4.3 10 Oeste 18 Oeste 0 904.7 0.9 63
2018-01-28 19:00:00 5.2 8 Noroeste 18 Oeste 0 904.1 0.2 59
2018-01-28 18:00:00 8.3 9 Este 19 Sur 0 903.8 -0.5 50
2018-01-28 17:00:00 11 7 Este 16 Sur 0 903.8 -1 41
2018-01-28 16:00:00 11.4 8 Sudeste 21 Sur 0 903.9 -1.2 41
2018-01-28 15:00:00 11.4 12 Este 19 Sudeste 0 904.3 -0.9 41
2018-01-28 14:00:00 11.1 12 Este 22 Nordeste 0 904.8 0 41
2018-01-28 13:00:00 10.9 8 Sudeste 19 Sur 0 905.1 0.8 42
2018-01-28 12:00:00 8.7 4 Sudoeste 16 Oeste 0 905.2 1.4 38
2018-01-28 11:00:00 5.3 6 Noroeste 13 Noroeste 0 904.8 1.5 44
2018-01-28 10:00:00 2.3 5 Noroeste 17 Noroeste 0 904.3 1.3 54
2018-01-28 09:00:00 0.1 9 Noroeste 17 Noroeste 0 903.8 1.3 61
2018-01-28 08:00:00 -1.3 6 Noroeste 12 Oeste 0 903.3 0.9 61
2018-01-28 07:00:00 -1.1 5 Oeste 17 Oeste 0 903 0.8 55
2018-01-28 06:00:00 -1.6 7 Noroeste 15 Noroeste 0 902.5 0.5 52
2018-01-28 05:00:00 -2.1 6 Norte 18 Oeste 0 902.4 0 54
2018-01-28 04:00:00 -0.3 5 Noroeste 19 Noroeste 0 902.2 -0.1 42
2018-01-28 03:00:00 -0.2 14 Noroeste 22 Noroeste 0 902 0.3 45
2018-01-28 02:00:00 -1.3 7 Noroeste 21 Oeste 0 902.4 0.6 58
2018-01-28 01:00:00 -1.1 4 Sur 16 Sudoeste 0 902.3 0.8 70
2018-01-28 00:00:00 0.3 3 Oeste 19 Noroeste 0 901.7 0.8 48
2018-01-27 23:00:00 0.7 4 Sudoeste 22 Norte 0 901.8 0.6 59
2018-01-27 22:00:00 1.2 6 Oeste 39 Norte 0 901.5 1.1 66
2018-01-27 21:00:00 2.1 17 Norte 37 Norte 0 900.9 1 62
2018-01-27 20:00:00 1.8 13 Norte 29 Nordeste 0 901.2 1.8 81
2018-01-27 19:00:00 1.6 10 Norte 37 Norte 0 900.4 1.4 82
2018-01-27 18:00:00 2.4 15 Norte 36 Norte 0 899.9 1.3 69
2018-01-27 17:00:00 2.7 11 Norte 39 Norte 0 899.4 0.8 71
2018-01-27 16:00:00 2.9 15 Norte 41 Norte 0 899 0.1 69
2018-01-27 15:00:00 3.4 16 Norte 45 Norte 0 898.6 -0.4 68
2018-01-27 14:00:00 3.3 21 Norte 42 Norte 0 898.6 -0.2 76
2018-01-27 13:00:00 2.7 23 Norte 44 Norte 0 898.9 0.4 78
2018-01-27 12:00:00 3.1 21 Norte 46 Norte 0 899 1.2 77
2018-01-27 11:00:00 2.3 16 Norte 43 Norte 0 898.8 1.2 82
2018-01-27 10:00:00 1.5 15 Norte 42 Nordeste 0 898.5 1.5 83
2018-01-27 09:00:00 0.8 16 Norte 39 Norte 0 897.8 1.1 78
2018-01-27 08:00:00 0.7 15 Norte 35 Norte 0 897.6 1.1 83
2018-01-27 07:00:00 0.7 14 Norte 31 Norte 0 897 0.3 85
2018-01-27 06:00:00 0.6 15 Norte 33 Norte 0 896.7 0.1 84
2018-01-27 05:00:00 0.3 14 Norte 41 Norte 0 896.5 0 80
2018-01-27 04:00:00 0.4 16 Noroeste 52 Norte 0 896.7 0.1 81
2018-01-27 03:00:00 0.2 13 Noroeste 50 Norte 0 896.6 0.4 83
2018-01-27 02:00:00 0.3 4 Sudoeste 35 Norte 0.2 896.5 0.9 83
2018-01-27 01:00:00 0.5 12 Norte 42 Norte 0 896.6 1.2 83
2018-01-27 00:00:00 0.7 8 Noroeste 36 Norte 0 896.2 0.5 79
2018-01-26 23:00:00 0.7 11 Noroeste 35 Norte 0 895.6 0.7 81
2018-01-26 22:00:00 -0.1 4 Sudoeste 33 Norte 0 895.4 1.3 86
2018-01-26 21:00:00 -0.4 8 Oeste 38 Norte 0.2 895.7 2 90
2018-01-26 20:00:00 0 11 Norte 37 Norte 0.2 894.9 1.9 86
2018-01-26 19:00:00 0 18 Norte 39 Norte 0 894.1 1.8 89
2018-01-26 18:00:00 0.1 9 Noroeste 38 Norte 0.4 893.7 1.7 89
2018-01-26 17:00:00 0.4 12 Norte 47 Noroeste 0.6 893 1 92
2018-01-26 16:00:00 0.5 19 Noroeste 49 Noroeste 0 892.3 -0.1 84
2018-01-26 15:00:00 1.5 17 Noroeste 35 Noroeste 0 892 -0.1 82
2018-01-26 14:00:00 2.3 10 Norte 36 Norte 0 892 0.6 83
2018-01-26 13:00:00 1.8 4 Noroeste 24 Norte 0.8 892.4 1.4 90
2018-01-26 12:00:00 2 7 Noroeste 23 Oeste 1.4 892.1 1.7 85
2018-01-26 11:00:00 0.4 8 Noroeste 25 Sur 0.2 891.4 1.9 93
2018-01-26 10:00:00 -0.4 3 Oeste 20 Norte 0.2 891 1.9 93
2018-01-26 09:00:00 -0.8 15 Norte 28 Norte 0.2 890.4 1.8 92
2018-01-26 08:00:00 -1.4 4 Noroeste 26 Noroeste 0 889.5 1.1 90
2018-01-26 07:00:00 -1.2 10 Noroeste 20 Norte 0 889.1 0.6 85
2018-01-26 06:00:00 -2.4 9 Noroeste 17 Oeste 0 888.6 0.3 89
2018-01-26 05:00:00 -2.9 5 Oeste 18 Oeste 0 888.4 0 89
2018-01-26 04:00:00 -3.1 4 Nordeste 14 Oeste 0 888.5 0.4 89
2018-01-26 03:00:00 -2.7 3 Oeste 17 Oeste 0 888.3 0.6 89
2018-01-26 02:00:00 -2.5 6 Oeste 19 Oeste 0 888.4 1.2 88
2018-01-26 01:00:00 -1.9 3 Nordeste 17 Oeste 0 888.1 1.2 86
2018-01-26 00:00:00 -1.9 8 Sur 21 Sudoeste 0 887.7 1 84
2018-01-25 23:00:00 -0.9 4 Norte 24 Norte 0 887.2 0.7 81
2018-01-25 22:00:00 -0.7 10 Norte 21 Norte 0 886.9 0.9 81
2018-01-25 21:00:00 -0.2 10 Norte 30 Norte 0 886.7 1.4 84
2018-01-25 20:00:00 0.2 14 Norte 25 Norte 0 886.5 1.6 86
2018-01-25 19:00:00 0.7 15 Norte 26 Norte 0 886 1.5 89
2018-01-25 18:00:00 1 16 Norte 36 Norte 0 885.3 0.5 88
2018-01-25 17:00:00 1.8 12 Norte 28 Norte 0 884.9 0.1 90
2018-01-25 16:00:00 2 9 Norte 20 Norte 1.2 884.5 -0.7 94
2018-01-25 15:00:00 1.7 9 Norte 17 Norte 1 884.8 -1.1 93
2018-01-25 14:00:00 3 7 Noroeste 27 Oeste 1.4 884.8 -0.9 93
2018-01-25 13:00:00 4 3 Sudeste 14 Sur 0.2 885.2 -0.8 94
2018-01-25 12:00:00 3.4 6 Nordeste 22 Sudoeste 0 885.9 -0.3 94
2018-01-25 11:00:00 2.9 4 Este 19 Sudeste 0 885.7 -0.9 95
2018-01-25 10:00:00 2.4 12 Este 27 Este 0.2 886 -1 94
2018-01-25 09:00:00 2.3 10 Este 30 Sudoeste 0.8 886.2 -0.9 93
2018-01-25 08:00:00 2.9 9 Noroeste 33 Sur 3 886.6 -1.3 93
2018-01-25 07:00:00 3.5 11 Sudoeste 28 Sudoeste 0.8 887 -2 93
2018-01-25 06:00:00 4.1 9 Sudoeste 30 Sudoeste 0 887.1 -2.5 92
2018-01-25 05:00:00 4.1 7 Sudoeste 37 Sudoeste 0 887.9 -2.6 94
2018-01-25 04:00:00 3.2 8 Noroeste 22 Norte 0 889 -2 94
2018-01-25 03:00:00 2.3 4 Oeste 13 Oeste 0 889.6 -1.9 95
2018-01-25 02:00:00 1.6 6 Norte 11 Noroeste 0 890.5 -1.2 95
2018-01-25 01:00:00 1.3 6 Nordeste 17 Oeste 0 891 -0.9 94
2018-01-25 00:00:00 1.5 4 Oeste 15 Oeste 0 891.5 -0.6 95
2018-01-24 23:00:00 -0.6 5 Nordeste 16 Sudoeste 0 891.7 -0.3 95
2018-01-24 22:00:00 -1.4 3 Norte 17 Sudoeste 0 891.9 0 94
2018-01-24 21:00:00 -0.9 3 Sudeste 15 Sudoeste 0 892.1 0.3 94
2018-01-24 20:00:00 -1.2 4 Nordeste 10 Noroeste 0 892 0.3 91
2018-01-24 19:00:00 0 5 Norte 12 Noroeste 0 891.9 0 89
2018-01-24 18:00:00 1.9 4 Norte 14 Nordeste 0 891.8 -0.2 79
2018-01-24 17:00:00 5.7 9 Nordeste 16 Nordeste 0 891.7 -1.3 64
2018-01-24 16:00:00 8.1 6 Nordeste 14 Oeste 0 891.9 -1.9 61
2018-01-24 15:00:00 6.9 5 Nordeste 19 Sudoeste 0 892 -2.1 69
2018-01-24 14:00:00 4.1 3 Noroeste 22 Oeste 0 893 -1.1 93
2018-01-24 13:00:00 0.8 5 Noroeste 20 Oeste 0 893.8 -0.2 95
2018-01-24 12:00:00 0 4 Nordeste 16 Sur 0 894.1 0.1 95
2018-01-24 11:00:00 -2.1 5 Nordeste 15 Oeste 0 894.1 0.2 95
2018-01-24 10:00:00 -3.4 5 Sudeste 15 Oeste 0 894 0.3 95
2018-01-24 09:00:00 -3.6 4 Oeste 17 Oeste 0 894 -0.1 95
2018-01-24 08:00:00 -3.3 5 Oeste 15 Oeste 0 893.9 -0.4 95
2018-01-24 07:00:00 -3.6 6 Norte 15 Nordeste 0 893.7 -1.1 96
2018-01-24 06:00:00 -3.8 5 Nordeste 14 Nordeste 0 894.1 -1.2 95
2018-01-24 05:00:00 -3.8 5 Este 14 Sudoeste 0 894.3 -1.4 95
2018-01-24 04:00:00 -2.8 4 Norte 15 Oeste 0 894.8 -1.5 96
2018-01-24 03:00:00 -1.9 4 Noroeste 17 Oeste 0 895.3 -1.5 96
2018-01-24 02:00:00 -0.9 3 Noroeste 19 Oeste 0 895.7 -1.4 96
2018-01-24 01:00:00 0.5 6 Oeste 23 Oeste 0 896.3 -1 95
2018-01-24 00:00:00 1.8 3 Noroeste 11 Oeste 0 896.8 -0.8 95
2018-01-23 23:00:00 2.4 2 Sudoeste 18 Sudoeste 0 897.1 -0.6 95
2018-01-23 22:00:00 2.9 3 Oeste 10 Oeste 0 897.3 -0.3 94
2018-01-23 21:00:00 3.3 2 Sudoeste 12 Oeste 0 897.6 0.2 94
2018-01-23 20:00:00 3.6 2 Este 11 Oeste 0 897.7 0.4 93
2018-01-23 19:00:00 4.1 3 Este 11 Oeste 0 897.6 0.3 92
2018-01-23 18:00:00 4.8 3 Este 13 Sur 0 897.4 0.3 89
2018-01-23 17:00:00 5.9 4 Este 15 Sur 0 897.3 -0.3 86
2018-01-23 16:00:00 7.5 8 Sudeste 17 Sudeste 0 897.3 -0.9 79
2018-01-23 15:00:00 7.8 10 Sudeste 20 Este 0 897.1 -1.4 81
2018-01-23 14:00:00 6.2 5 Sudeste 11 Sudeste 0 897.6 -0.7 89
2018-01-23 13:00:00 3.8 4 Este 10 Sudeste 0 898.2 0.2 92
2018-01-23 12:00:00 4 4 Este 15 Sudoeste 0 898.5 0.9 95
2018-01-23 11:00:00 2.1 0 Calma 15 Oeste 0 898.3 1.2 96
2018-01-23 10:00:00 -0.5 4 Oeste 14 Oeste 0 898 1 96
2018-01-23 09:00:00 -1.5 6 Sudoeste 15 Sudoeste 0 897.6 0.3 97
2018-01-23 08:00:00 -0.3 5 Noroeste 8 Noroeste 0 897.1 -0.6 96
2018-01-23 07:00:00 -0.8 5 Noroeste 17 Oeste 0 897 -0.8 97
2018-01-23 06:00:00 -1.8 7 Noroeste 17 Oeste 0 897.3 -0.7 97
2018-01-23 05:00:00 -1.2 3 Noroeste 16 Oeste 0 897.7 -0.5 97
2018-01-23 04:00:00 -1 3 Noroeste 18 Oeste 0 897.8 -0.6 96
2018-01-23 03:00:00 -0.4 4 Noroeste 16 Oeste 0 898 -0.4 96
2018-01-23 02:00:00 0 2 Norte 14 Sudoeste 0 898.2 0 96
2018-01-23 01:00:00 0.3 5 Sur 14 Sudoeste 0 898.4 0 96
2018-01-23 00:00:00 0.8 2 Nordeste 16 Sudoeste 0 898.4 -0.1 96
2018-01-22 23:00:00 1.2 0 Calma 17 Oeste 0 898.2 -0.1 96
2018-01-22 22:00:00 1.8 3 Oeste 18 Sudoeste 0 898.4 0.3 95
2018-01-22 21:00:00 2.3 2 Sudoeste 18 Sudoeste 0 898.5 0.8 95
2018-01-22 20:00:00 2.5 2 Norte 11 Sudoeste 0 898.3 1 95
2018-01-22 19:00:00 2.9 3 Este 9 Sudoeste 0 898.1 1 95
2018-01-22 18:00:00 3.3 3 Este 10 Oeste 0 897.7 0.5 95
2018-01-22 17:00:00 3.6 3 Este 9 Sudeste 0 897.3 -0.2 95
2018-01-22 16:00:00 4.1 5 Sur 19 Sudoeste 0 897.1 -1 95
2018-01-22 15:00:00 3.7 3 Este 20 Sur 0 897.2 -1 95
2018-01-22 14:00:00 3.1 4 Este 17 Sudoeste 0 897.5 -0.6 96
2018-01-22 13:00:00 2.5 2 Sudoeste 10 Sudeste 0 898.1 0.7 96
2018-01-22 12:00:00 1.6 7 Sudeste 20 Sur 0 898.2 1.3 96
2018-01-22 11:00:00 0.2 3 Oeste 17 Sudoeste 0 898.1 1.4 96
2018-01-22 10:00:00 -0.8 4 Oeste 17 Oeste 0 897.4 0.7 96
2018-01-22 09:00:00 -1.2 3 Nordeste 14 Sudoeste 0 896.9 0.2 96
2018-01-22 08:00:00 -1.2 4 Noroeste 19 Oeste 0 896.7 0 96
2018-01-22 07:00:00 -0.9 4 Oeste 19 Oeste 0 896.7 -0.3 96
2018-01-22 06:00:00 0 4 Oeste 16 Oeste 0 896.7 -0.6 96
2018-01-22 05:00:00 0.3 5 Noroeste 10 Noroeste 0 896.7 -0.8 96
2018-01-22 04:00:00 1.2 3 Noroeste 9 Noroeste 0 897 -1.1 95
2018-01-22 03:00:00 2 5 Noroeste 9 Noroeste 0 897.3 -0.9 95
2018-01-22 02:00:00 2.6 3 Oeste 16 Oeste 0 897.5 -0.6 95
2018-01-22 01:00:00 3.2 4 Oeste 15 Oeste 0 898.1 -0.2 95
2018-01-22 00:00:00 3.8 4 Oeste 17 Oeste 0 898.2 -0.1 94